createdAt,value
2023-04-24T00:00:07.094Z,59.57
2023-04-24T00:01:10.128Z,59.84
2023-04-24T00:02:12.651Z,59.75
2023-04-24T00:03:15.310Z,59.80
2023-04-24T00:04:18.434Z,59.85
2023-04-24T00:05:21.043Z,59.72
2023-04-24T00:06:24.819Z,59.70
2023-04-24T00:07:27.172Z,59.56
2023-04-24T00:08:29.430Z,59.86
2023-04-24T00:09:31.660Z,59.84
2023-04-24T00:10:34.069Z,59.95
2023-04-24T00:11:37.291Z,59.91
2023-04-24T00:12:40.010Z,59.78
2023-04-24T00:13:42.320Z,59.89
2023-04-24T00:14:44.636Z,59.72
2023-04-24T00:15:46.974Z,59.88
2023-04-24T00:16:49.304Z,59.86
2023-04-24T00:17:51.710Z,59.75
2023-04-24T00:18:57.521Z,59.76
2023-04-24T00:19:59.834Z,59.84
2023-04-24T00:21:02.251Z,59.96
2023-04-24T00:22:04.787Z,60.01
2023-04-24T00:23:07.082Z,60.09
2023-04-24T00:24:10.721Z,59.94
2023-04-24T00:25:12.948Z,60.09
2023-04-24T00:26:15.215Z,59.71
2023-04-24T00:27:17.546Z,60.00
2023-04-24T00:28:19.790Z,59.98
2023-04-24T00:29:22.224Z,59.83
2023-04-24T00:30:24.536Z,59.87
2023-04-24T00:31:28.306Z,59.99
2023-04-24T00:32:31.739Z,59.87
2023-04-24T00:33:34.088Z,59.78
2023-04-24T00:34:36.462Z,59.93
2023-04-24T00:35:38.757Z,59.77
2023-04-24T00:36:41.566Z,59.84
2023-04-24T00:37:44.376Z,59.86
2023-04-24T00:38:46.834Z,59.89
2023-04-24T00:39:49.288Z,59.84
2023-04-24T00:40:52.690Z,59.93
2023-04-24T00:41:55.077Z,59.78
2023-04-24T00:42:57.786Z,60.03
2023-04-24T00:44:00.339Z,60.06
2023-04-24T00:45:04.377Z,59.86
2023-04-24T00:46:07.252Z,59.99
2023-04-24T00:47:09.604Z,60.17
2023-04-24T00:48:13.038Z,60.21
2023-04-24T00:49:15.951Z,60.06
2023-04-24T00:50:18.381Z,59.88
2023-04-24T00:51:21.132Z,59.94
2023-04-24T00:52:25.484Z,60.12
2023-04-24T00:53:27.780Z,60.13
2023-04-24T00:54:30.397Z,60.11
2023-04-24T00:55:33.430Z,60.11
2023-04-24T00:56:36.117Z,60.18
2023-04-24T00:57:40.104Z,60.05
2023-04-24T00:58:43.277Z,60.28
2023-04-24T00:59:45.752Z,60.09
2023-04-24T01:00:50.348Z,60.04
2023-04-24T01:01:52.800Z,60.33
2023-04-24T01:02:56.725Z,60.33
2023-04-24T01:04:00.499Z,60.39
2023-04-24T01:05:03.242Z,60.10
2023-04-24T01:06:06.654Z,60.33
2023-04-24T01:07:11.842Z,60.32
2023-04-24T01:08:15.190Z,60.20
2023-04-24T01:09:18.793Z,60.23
2023-04-24T01:10:21.627Z,60.15
2023-04-24T01:11:23.883Z,60.07
2023-04-24T01:12:26.166Z,60.30
2023-04-24T01:13:28.949Z,60.03
2023-04-24T01:14:32.126Z,60.19
2023-04-24T01:15:34.407Z,60.36
2023-04-24T01:16:37.059Z,60.20
2023-04-24T01:17:40.469Z,60.21
2023-04-24T01:18:45.011Z,60.33
2023-04-24T01:19:47.414Z,60.06
2023-04-24T01:20:54.169Z,60.13
2023-04-24T01:22:03.004Z,60.39
2023-04-24T01:23:06.623Z,60.31
2023-04-24T01:24:09.178Z,60.41
2023-04-24T01:25:11.649Z,60.19
2023-04-24T01:26:18.510Z,60.21
2023-04-24T01:27:21.497Z,60.21
2023-04-24T01:28:24.174Z,60.23
2023-04-24T01:29:26.489Z,60.09
2023-04-24T01:30:29.128Z,60.13
2023-04-24T01:31:33.438Z,60.29
2023-04-24T01:32:37.516Z,60.10
2023-04-24T01:33:39.864Z,60.25
2023-04-24T01:34:43.321Z,60.12
2023-04-24T01:35:46.057Z,60.22
2023-04-24T01:36:49.086Z,60.01
2023-04-24T01:37:51.439Z,60.35
2023-04-24T01:38:53.843Z,60.23
2023-04-24T01:39:56.285Z,60.14
2023-04-24T01:40:58.621Z,60.28
2023-04-24T01:42:01.860Z,60.45
2023-04-24T01:43:04.288Z,60.29
2023-04-24T01:44:07.604Z,60.68
2023-04-24T01:45:12.896Z,60.43
2023-04-24T01:46:15.552Z,60.60
2023-04-24T01:47:18.142Z,60.79
2023-04-24T01:48:20.464Z,60.51
2023-04-24T01:49:22.932Z,60.64
2023-04-24T01:50:25.253Z,60.46
2023-04-24T01:51:28.101Z,60.66
2023-04-24T01:52:32.406Z,60.54
2023-04-24T01:53:34.652Z,60.65
2023-04-24T01:54:38.764Z,60.34
2023-04-24T01:55:42.300Z,60.56
2023-04-24T01:56:45.030Z,60.40
2023-04-24T01:57:47.388Z,60.37
2023-04-24T01:58:54.951Z,60.49
2023-04-24T01:59:58.073Z,60.49
2023-04-24T02:01:01.588Z,60.57
2023-04-24T02:02:05.064Z,60.56
2023-04-24T02:03:09.319Z,60.53
2023-04-24T02:04:13.672Z,60.84
2023-04-24T02:05:17.372Z,60.56
2023-04-24T02:06:19.677Z,60.60
2023-04-24T02:07:22.685Z,60.78
2023-04-24T02:08:25.204Z,60.77
2023-04-24T02:09:27.510Z,60.85
2023-04-24T02:10:29.879Z,60.68
2023-04-24T02:11:34.799Z,60.86
2023-04-24T02:12:37.313Z,60.70
2023-04-24T02:13:39.708Z,60.68
2023-04-24T02:14:43.514Z,60.71
2023-04-24T02:15:47.410Z,60.59
2023-04-24T02:16:49.633Z,60.79
2023-04-24T02:17:51.866Z,60.66
2023-04-24T02:18:54.234Z,60.80
2023-04-24T02:19:57.951Z,61.00
2023-04-24T02:21:00.299Z,60.83
2023-04-24T02:22:02.531Z,60.73
2023-04-24T02:23:04.787Z,60.70
2023-04-24T02:24:07.120Z,60.96
2023-04-24T02:25:10.812Z,60.72
2023-04-24T02:26:13.143Z,60.64
2023-04-24T02:27:15.938Z,60.93
2023-04-24T02:28:18.208Z,60.59
2023-04-24T02:29:21.877Z,60.82
2023-04-24T02:30:26.483Z,60.65
2023-04-24T02:31:29.006Z,60.66
2023-04-24T02:32:32.373Z,60.67
2023-04-24T02:33:34.711Z,60.67
2023-04-24T02:34:37.228Z,60.99
2023-04-24T02:35:42.029Z,60.76
2023-04-24T02:36:44.760Z,60.96
2023-04-24T02:37:47.434Z,60.96
2023-04-24T02:38:50.721Z,60.88
2023-04-24T02:39:53.580Z,61.02
2023-04-24T02:40:56.401Z,60.87
2023-04-24T02:41:59.451Z,60.82
2023-04-24T02:43:01.782Z,60.62
2023-04-24T02:44:04.161Z,60.70
2023-04-24T02:45:07.387Z,60.68
2023-04-24T02:46:09.776Z,60.81
2023-04-24T02:47:12.133Z,60.68
2023-04-24T02:48:16.216Z,60.93
2023-04-24T02:49:18.598Z,60.73
2023-04-24T02:50:21.067Z,60.76
2023-04-24T02:51:25.079Z,60.75
2023-04-24T02:52:27.654Z,60.68
2023-04-24T02:53:32.102Z,60.80
2023-04-24T02:54:34.366Z,60.86
2023-04-24T02:55:37.276Z,60.96
2023-04-24T02:56:39.651Z,60.99
2023-04-24T02:57:43.219Z,60.82
2023-04-24T02:58:45.589Z,60.92
2023-04-24T02:59:48.179Z,60.87
2023-04-24T03:00:54.786Z,61.00
2023-04-24T03:01:57.152Z,60.87
2023-04-24T03:02:59.920Z,60.83
2023-04-24T03:04:03.162Z,60.92
2023-04-24T03:05:06.086Z,60.86
2023-04-24T03:06:09.233Z,60.80
2023-04-24T03:07:11.599Z,60.63
2023-04-24T03:08:13.949Z,60.82
2023-04-24T03:09:16.338Z,60.65
2023-04-24T03:10:18.717Z,60.88
2023-04-24T03:11:21.064Z,60.61
2023-04-24T03:12:25.049Z,60.84
2023-04-24T03:13:27.444Z,60.80
2023-04-24T03:14:37.752Z,60.90
2023-04-24T03:15:40.319Z,60.92
2023-04-24T03:16:44.114Z,60.70
2023-04-24T03:17:46.524Z,60.73
2023-04-24T03:18:49.826Z,60.62
2023-04-24T03:19:52.123Z,60.76
2023-04-24T03:20:55.505Z,60.82
2023-04-24T03:21:57.915Z,60.58
2023-04-24T03:23:00.677Z,60.67
2023-04-24T03:24:03.519Z,60.66
2023-04-24T03:25:06.566Z,60.80
2023-04-24T03:26:08.926Z,60.76
2023-04-24T03:27:14.539Z,60.46
2023-04-24T03:28:43.609Z,60.57
2023-04-24T03:29:46.302Z,60.62
2023-04-24T03:30:49.508Z,60.74
2023-04-24T03:31:53.819Z,60.34
2023-04-24T03:32:56.409Z,60.35
2023-04-24T03:34:02.772Z,60.33
2023-04-24T03:35:05.442Z,60.61
2023-04-24T03:36:08.383Z,60.30
2023-04-24T03:37:18.066Z,60.50
2023-04-24T03:38:27.441Z,60.19
2023-04-24T03:39:35.099Z,60.53
2023-04-24T03:40:37.866Z,60.34
2023-04-24T03:41:47.768Z,60.52
2023-04-24T03:42:54.296Z,60.35
2023-04-24T03:43:56.952Z,60.23
2023-04-24T03:44:59.221Z,60.12
2023-04-24T03:46:06.705Z,60.28
2023-04-24T03:47:13.842Z,60.29
2023-04-24T03:48:16.614Z,60.27
2023-04-24T03:49:20.216Z,60.22
2023-04-24T03:50:23.960Z,60.00
2023-04-24T03:51:26.669Z,59.92
2023-04-24T03:52:32.062Z,59.75
2023-04-24T03:53:35.603Z,59.76
2023-04-24T03:54:37.926Z,59.77
2023-04-24T03:55:41.371Z,59.75
2023-04-24T03:56:44.631Z,59.64
2023-04-24T03:57:48.140Z,59.72
2023-04-24T03:58:57.368Z,59.25
2023-04-24T03:59:59.865Z,59.22
2023-04-24T04:01:02.508Z,59.26
2023-04-24T04:02:28.325Z,59.14
2023-04-24T04:03:31.146Z,59.37
2023-04-24T04:04:33.959Z,59.29
2023-04-24T04:05:36.344Z,59.22
2023-04-24T04:06:38.756Z,59.04
2023-04-24T04:07:41.465Z,58.96
2023-04-24T04:08:44.604Z,59.06
2023-04-24T04:09:46.988Z,58.90
2023-04-24T04:10:49.663Z,58.98
2023-04-24T04:11:51.955Z,58.87
2023-04-24T04:12:54.191Z,59.01
2023-04-24T04:13:57.916Z,58.87
2023-04-24T04:15:00.441Z,58.69
2023-04-24T04:16:04.081Z,58.74
2023-04-24T04:17:06.402Z,58.90
2023-04-24T04:18:09.739Z,58.55
2023-04-24T04:19:12.386Z,58.62
2023-04-24T04:20:14.648Z,58.64
2023-04-24T04:21:17.253Z,58.49
2023-04-24T04:22:19.996Z,58.63
2023-04-24T04:23:25.198Z,58.48
2023-04-24T04:24:41.833Z,58.52
2023-04-24T04:25:45.812Z,58.48
2023-04-24T04:26:48.378Z,58.33
2023-04-24T04:28:01.054Z,58.44
2023-04-24T04:29:04.445Z,58.54
2023-04-24T04:30:08.787Z,58.26
2023-04-24T04:31:23.275Z,58.34
2023-04-24T04:32:26.311Z,58.10
2023-04-24T04:33:28.717Z,58.05
2023-04-24T04:34:32.603Z,58.33
2023-04-24T04:35:35.997Z,58.19
2023-04-24T04:36:41.339Z,58.09
2023-04-24T04:38:09.506Z,58.16
2023-04-24T04:39:34.291Z,57.93
2023-04-24T04:40:47.314Z,57.99
2023-04-24T04:41:51.642Z,57.98
2023-04-24T04:42:56.347Z,58.08
2023-04-24T04:43:59.807Z,58.13
2023-04-24T04:45:02.166Z,57.86
2023-04-24T04:46:15.464Z,58.09
2023-04-24T04:47:41.319Z,57.78
2023-04-24T04:48:45.640Z,57.89
2023-04-24T04:49:47.948Z,57.88
2023-04-24T04:50:56.072Z,57.98
2023-04-24T04:51:59.061Z,57.94
2023-04-24T04:53:02.864Z,57.98
2023-04-24T04:54:09.111Z,57.98
2023-04-24T04:55:14.452Z,57.98
2023-04-24T04:56:52.112Z,57.80
2023-04-24T04:57:56.678Z,57.82
2023-04-24T04:59:00.213Z,57.88
2023-04-24T05:00:02.940Z,57.67
2023-04-24T05:01:17.703Z,57.69
2023-04-24T05:02:22.940Z,57.53
2023-04-24T05:03:25.608Z,57.67
2023-04-24T05:04:33.996Z,57.44
2023-04-24T05:05:36.748Z,57.53
2023-04-24T05:06:39.110Z,57.57
2023-04-24T05:07:42.183Z,57.25
2023-04-24T05:08:45.135Z,57.30
2023-04-24T05:09:58.111Z,57.44
2023-04-24T05:11:00.989Z,57.30
2023-04-24T05:12:05.210Z,57.32
2023-04-24T05:13:15.891Z,57.30
2023-04-24T05:14:20.262Z,57.02
2023-04-24T05:15:22.636Z,56.99
2023-04-24T05:16:24.927Z,57.16
2023-04-24T05:17:29.847Z,57.28
2023-04-24T05:18:33.559Z,57.15
2023-04-24T05:19:39.063Z,57.28
2023-04-24T05:20:45.039Z,57.16
2023-04-24T05:21:47.561Z,57.15
2023-04-24T05:22:50.744Z,57.04
2023-04-24T05:23:54.031Z,57.30
2023-04-24T05:25:09.977Z,57.05
2023-04-24T05:26:16.843Z,56.94
2023-04-24T05:27:19.274Z,56.78
2023-04-24T05:28:22.229Z,56.93
2023-04-24T05:29:36.519Z,56.77
2023-04-24T05:30:40.808Z,56.73
2023-04-24T05:31:44.474Z,56.47
2023-04-24T05:32:47.150Z,56.57
2023-04-24T05:33:49.906Z,56.25
2023-04-24T05:34:52.371Z,56.40
2023-04-24T05:35:56.797Z,55.96
2023-04-24T05:36:59.294Z,56.16
2023-04-24T05:38:02.478Z,56.14
2023-04-24T05:39:08.176Z,55.61
2023-04-24T05:40:11.644Z,55.50
2023-04-24T05:41:13.916Z,55.56
2023-04-24T05:42:16.372Z,55.51
2023-04-24T05:43:18.933Z,55.14
2023-04-24T05:44:21.453Z,55.46
2023-04-24T05:45:24.383Z,55.36
2023-04-24T05:46:26.860Z,55.33
2023-04-24T05:47:29.213Z,55.39
2023-04-24T05:48:32.042Z,54.98
2023-04-24T05:49:38.436Z,55.37
2023-04-24T05:50:42.183Z,55.41
2023-04-24T05:51:45.069Z,55.31
2023-04-24T05:52:47.489Z,55.21
2023-04-24T05:54:00.176Z,55.20
2023-04-24T05:55:02.655Z,55.09
2023-04-24T05:56:10.580Z,55.21
2023-04-24T05:57:12.889Z,55.31
2023-04-24T05:58:26.055Z,55.26
2023-04-24T05:59:28.413Z,55.00
2023-04-24T06:00:30.733Z,54.92
2023-04-24T06:01:39.449Z,54.90
2023-04-24T06:02:48.391Z,55.03
2023-04-24T06:03:51.875Z,55.06
2023-04-24T06:04:56.725Z,54.96
2023-04-24T06:06:00.562Z,55.01
2023-04-24T06:07:03.068Z,54.57
2023-04-24T06:08:05.625Z,54.80
2023-04-24T06:09:13.181Z,54.66
2023-04-24T06:10:15.731Z,54.31
2023-04-24T06:11:20.352Z,54.34
2023-04-24T06:12:23.148Z,54.43
2023-04-24T06:13:33.662Z,54.36
2023-04-24T06:14:56.643Z,53.98
2023-04-24T06:16:24.760Z,53.77
2023-04-24T06:17:34.452Z,53.79
2023-04-24T06:18:36.765Z,53.81
2023-04-24T06:19:40.316Z,53.65
2023-04-24T06:20:42.922Z,53.64
2023-04-24T06:21:46.031Z,53.47
2023-04-24T06:22:48.369Z,53.16
2023-04-24T06:23:50.960Z,52.76
2023-04-24T06:24:54.306Z,52.94
2023-04-24T06:25:56.554Z,52.66
2023-04-24T06:27:00.157Z,52.59
2023-04-24T06:28:03.778Z,52.76
2023-04-24T06:29:08.507Z,52.33
2023-04-24T06:30:12.503Z,52.34
2023-04-24T06:31:14.825Z,52.14
2023-04-24T06:32:17.226Z,52.22
2023-04-24T06:33:21.282Z,52.32
2023-04-24T06:34:25.579Z,51.68
2023-04-24T06:35:27.801Z,51.71
2023-04-24T06:36:30.131Z,51.37
2023-04-24T06:37:33.364Z,51.33
2023-04-24T06:38:35.802Z,51.09
2023-04-24T06:39:38.582Z,51.37
2023-04-24T06:40:41.446Z,50.92
2023-04-24T06:41:43.997Z,51.02
2023-04-24T06:42:54.720Z,50.74
2023-04-24T06:43:57.392Z,51.04
2023-04-24T06:44:59.928Z,50.92
2023-04-24T06:46:04.709Z,50.64
2023-04-24T06:47:07.177Z,50.89
2023-04-24T06:48:09.511Z,50.69
2023-04-24T06:49:12.830Z,50.81
2023-04-24T06:50:15.521Z,50.66
2023-04-24T06:51:19.285Z,50.51
2023-04-24T06:52:21.789Z,50.30
2023-04-24T06:53:26.451Z,50.68
2023-04-24T06:54:28.765Z,50.79
2023-04-24T06:55:31.086Z,50.60
2023-04-24T06:56:35.409Z,50.88
2023-04-24T06:57:37.793Z,50.95
2023-04-24T06:58:40.099Z,50.72
2023-04-24T06:59:42.894Z,50.91
2023-04-24T07:00:45.396Z,50.60
2023-04-24T07:01:47.788Z,50.78
2023-04-24T07:02:51.178Z,50.21
2023-04-24T07:03:53.701Z,49.95
2023-04-24T07:04:56.094Z,50.12
2023-04-24T07:05:59.151Z,49.88
2023-04-24T07:07:02.108Z,49.87
2023-04-24T07:08:04.622Z,50.02
2023-04-24T07:09:06.915Z,49.76
2023-04-24T07:10:09.789Z,49.84
2023-04-24T07:11:12.098Z,49.64
2023-04-24T07:12:14.895Z,49.41
2023-04-24T07:13:17.170Z,49.25
2023-04-24T07:14:19.587Z,49.11
2023-04-24T07:15:21.994Z,48.92
2023-04-24T07:16:24.562Z,48.57
2023-04-24T07:17:27.228Z,48.73
2023-04-24T07:18:29.513Z,48.45
2023-04-24T07:19:32.032Z,48.08
2023-04-24T07:20:34.693Z,47.75
2023-04-24T07:21:36.970Z,47.83
2023-04-24T07:22:40.628Z,47.55
2023-04-24T07:23:43.519Z,47.57
2023-04-24T07:24:46.466Z,47.47
2023-04-24T07:25:48.943Z,46.97
2023-04-24T07:26:53.382Z,47.07
2023-04-24T07:27:55.707Z,47.09
2023-04-24T07:28:58.109Z,46.75
2023-04-24T07:30:00.985Z,46.86
2023-04-24T07:31:03.259Z,46.61
2023-04-24T07:32:05.544Z,46.68
2023-04-24T07:33:08.151Z,46.81
2023-04-24T07:34:10.882Z,46.88
2023-04-24T07:35:13.234Z,46.91
2023-04-24T07:36:20.095Z,47.28
2023-04-24T07:37:22.679Z,47.21
2023-04-24T07:38:26.987Z,47.16
2023-04-24T07:39:31.845Z,46.79
2023-04-24T07:40:35.520Z,46.46
2023-04-24T07:41:37.772Z,46.66
2023-04-24T07:42:40.444Z,46.75
2023-04-24T07:43:43.114Z,46.50
2023-04-24T07:44:45.684Z,46.47
2023-04-24T07:45:48.159Z,46.59
2023-04-24T07:46:50.606Z,46.64
2023-04-24T07:47:53.224Z,46.60
2023-04-24T07:49:05.653Z,46.25
2023-04-24T07:50:14.460Z,46.02
2023-04-24T07:51:17.014Z,46.09
2023-04-24T07:52:19.285Z,45.99
2023-04-24T07:53:21.819Z,45.92
2023-04-24T07:54:24.414Z,46.00
2023-04-24T07:55:28.273Z,45.56
2023-04-24T07:56:32.497Z,45.54
2023-04-24T07:57:34.932Z,45.87
2023-04-24T07:58:37.335Z,45.83
2023-04-24T07:59:39.641Z,45.92
2023-04-24T08:00:41.980Z,46.04
2023-04-24T08:01:44.260Z,45.75
2023-04-24T08:02:46.743Z,46.07
2023-04-24T08:03:49.373Z,45.96
2023-04-24T08:04:52.156Z,45.88
2023-04-24T08:05:54.699Z,45.19
2023-04-24T08:06:58.477Z,44.89
2023-04-24T08:08:00.981Z,44.94
2023-04-24T08:09:04.230Z,44.96
2023-04-24T08:10:07.186Z,44.75
2023-04-24T08:11:09.575Z,44.66
2023-04-24T08:12:12.959Z,44.11
2023-04-24T08:13:15.328Z,44.31
2023-04-24T08:14:17.806Z,44.07
2023-04-24T08:15:20.186Z,43.31
2023-04-24T08:16:22.699Z,43.31
2023-04-24T08:17:26.705Z,43.67
2023-04-24T08:18:29.267Z,43.72
2023-04-24T08:19:31.691Z,43.74
2023-04-24T08:20:34.085Z,43.90
2023-04-24T08:21:36.337Z,43.87
2023-04-24T08:22:38.575Z,44.17
2023-04-24T08:23:42.474Z,43.90
2023-04-24T08:24:45.242Z,43.70
2023-04-24T08:25:47.637Z,43.70
2023-04-24T08:26:51.557Z,43.60
2023-04-24T08:27:53.845Z,43.37
2023-04-24T08:28:56.209Z,42.92
2023-04-24T08:30:00.000Z,43.19
2023-04-24T08:31:02.231Z,43.01
2023-04-24T08:32:04.765Z,43.29
2023-04-24T08:33:07.522Z,42.75
2023-04-24T08:34:11.029Z,42.61
2023-04-24T08:35:13.723Z,43.10
2023-04-24T08:36:16.097Z,42.71
2023-04-24T08:37:18.391Z,42.74
2023-04-24T08:38:20.838Z,42.38
2023-04-24T08:39:23.184Z,42.29
2023-04-24T08:40:31.935Z,42.66
2023-04-24T08:41:35.756Z,42.51
2023-04-24T08:42:38.965Z,42.56
2023-04-24T08:43:41.896Z,42.53
2023-04-24T08:44:45.221Z,42.23
2023-04-24T08:45:47.840Z,42.52
2023-04-24T08:46:50.305Z,42.09
2023-04-24T08:47:54.842Z,41.74
2023-04-24T08:48:57.607Z,41.78
2023-04-24T08:50:00.906Z,41.52
2023-04-24T08:51:05.243Z,41.70
2023-04-24T08:52:07.689Z,41.54
2023-04-24T08:53:10.361Z,41.48
2023-04-24T08:54:15.161Z,41.64
2023-04-24T08:55:21.497Z,41.88
2023-04-24T08:56:24.846Z,41.96
2023-04-24T08:57:27.944Z,41.78
2023-04-24T08:58:31.930Z,42.02
2023-04-24T08:59:35.127Z,41.87
2023-04-24T09:00:40.092Z,42.07
2023-04-24T09:01:42.865Z,41.98
2023-04-24T09:02:46.624Z,41.95
2023-04-24T09:03:54.588Z,41.46
2023-04-24T09:04:58.068Z,41.73
2023-04-24T09:06:02.344Z,41.55
2023-04-24T09:07:07.276Z,41.67
2023-04-24T09:08:12.345Z,41.67
2023-04-24T09:09:14.861Z,41.92
2023-04-24T09:10:17.345Z,41.46
2023-04-24T09:11:19.745Z,41.16
2023-04-24T09:12:22.080Z,41.22
2023-04-24T09:13:24.511Z,41.02
2023-04-24T09:14:27.405Z,40.92
2023-04-24T09:15:30.465Z,40.75
2023-04-24T09:16:36.516Z,40.92
2023-04-24T09:17:39.794Z,40.78
2023-04-24T09:18:42.350Z,40.89
2023-04-24T09:19:44.746Z,40.64
2023-04-24T09:21:04.881Z,40.65
2023-04-24T09:22:08.857Z,40.59
2023-04-24T09:23:17.336Z,40.29
2023-04-24T09:24:24.493Z,40.40
2023-04-24T09:25:33.871Z,40.85
2023-04-24T09:26:37.715Z,40.79
2023-04-24T09:27:45.912Z,40.62
2023-04-24T09:28:48.177Z,40.74
2023-04-24T09:29:58.169Z,40.49
2023-04-24T09:31:15.148Z,40.76
2023-04-24T09:32:26.932Z,40.60
2023-04-24T09:33:29.216Z,40.57
2023-04-24T09:34:31.793Z,40.57
2023-04-24T09:35:34.070Z,40.80
2023-04-24T09:36:39.158Z,40.60
2023-04-24T09:37:47.520Z,41.04
2023-04-24T09:38:49.792Z,40.94
2023-04-24T09:40:21.805Z,41.43
2023-04-24T09:41:24.744Z,41.21
2023-04-24T09:42:30.289Z,41.35
2023-04-24T09:43:33.325Z,40.83
2023-04-24T09:44:35.872Z,40.71
2023-04-24T09:45:40.262Z,40.69
2023-04-24T09:46:43.881Z,40.63
2023-04-24T09:47:46.844Z,41.12
2023-04-24T09:48:49.320Z,41.02
2023-04-24T09:49:51.586Z,40.88
2023-04-24T09:50:53.946Z,40.82
2023-04-24T09:52:06.957Z,41.09
2023-04-24T09:53:10.126Z,41.18
2023-04-24T09:54:17.544Z,41.12
2023-04-24T09:55:23.004Z,41.44
2023-04-24T09:56:27.420Z,40.93
2023-04-24T09:57:29.691Z,41.17
2023-04-24T09:58:31.972Z,41.42
2023-04-24T09:59:36.100Z,41.59
2023-04-24T10:00:39.780Z,41.52
2023-04-24T10:01:46.070Z,41.30
2023-04-24T10:02:52.286Z,41.20
2023-04-24T10:03:54.984Z,41.27
2023-04-24T10:04:58.621Z,40.90
2023-04-24T10:06:02.563Z,40.82
2023-04-24T10:07:07.893Z,40.41
2023-04-24T10:08:12.722Z,40.53
2023-04-24T10:09:15.250Z,40.34
2023-04-24T10:10:19.086Z,40.44
2023-04-24T10:11:21.388Z,40.64
2023-04-24T10:12:24.540Z,40.55
2023-04-24T10:13:27.198Z,40.35
2023-04-24T10:14:31.171Z,40.36
2023-04-24T10:15:33.575Z,40.31
2023-04-24T10:16:36.232Z,40.60
2023-04-24T10:17:39.533Z,40.27
2023-04-24T10:18:42.070Z,40.20
2023-04-24T10:19:44.960Z,40.24
2023-04-24T10:20:47.505Z,40.49
2023-04-24T10:21:50.877Z,40.12
2023-04-24T10:22:54.966Z,39.85
2023-04-24T10:23:58.004Z,40.01
2023-04-24T10:25:00.473Z,40.14
2023-04-24T10:26:03.040Z,40.26
2023-04-24T10:27:06.636Z,40.28
2023-04-24T10:28:11.159Z,40.24
2023-04-24T10:29:16.650Z,40.14
2023-04-24T10:30:20.735Z,40.08
2023-04-24T10:31:23.500Z,39.59
2023-04-24T10:32:25.828Z,39.55
2023-04-24T10:33:29.023Z,39.58
2023-04-24T10:34:33.817Z,39.46
2023-04-24T10:35:43.302Z,39.32
2023-04-24T10:36:54.352Z,39.72
2023-04-24T10:38:09.213Z,40.01
2023-04-24T10:39:15.975Z,40.10
2023-04-24T10:40:37.254Z,40.16
2023-04-24T10:41:39.796Z,39.62
2023-04-24T10:42:43.903Z,39.56
2023-04-24T10:43:47.189Z,39.74
2023-04-24T10:44:50.380Z,39.89
2023-04-24T10:46:04.350Z,39.45
2023-04-24T10:47:06.826Z,38.87
2023-04-24T10:48:14.764Z,39.06
2023-04-24T10:49:17.429Z,38.77
2023-04-24T10:50:20.022Z,39.27
2023-04-24T10:51:44.692Z,39.52
2023-04-24T10:52:48.678Z,39.57
2023-04-24T10:53:52.596Z,39.77
2023-04-24T10:54:59.287Z,39.60
2023-04-24T10:56:07.383Z,39.06
2023-04-24T10:57:23.097Z,39.70
2023-04-24T10:58:38.553Z,39.31
2023-04-24T10:59:41.067Z,39.22
2023-04-24T11:00:45.978Z,38.94
2023-04-24T11:01:55.334Z,38.66
2023-04-24T11:02:58.948Z,38.55
2023-04-24T11:04:04.344Z,38.47
2023-04-24T11:05:08.106Z,38.67
2023-04-24T11:06:11.774Z,38.50
2023-04-24T11:07:14.255Z,38.58
2023-04-24T11:08:22.634Z,38.20
2023-04-24T11:09:28.652Z,38.10
2023-04-24T11:10:31.113Z,38.41
2023-04-24T11:11:34.144Z,38.22
2023-04-24T11:12:36.585Z,38.58
2023-04-24T11:13:57.741Z,38.83
2023-04-24T11:15:02.534Z,38.31
2023-04-24T11:16:38.996Z,38.27
2023-04-24T11:17:43.754Z,38.02
2023-04-24T11:18:52.000Z,37.86
2023-04-24T11:20:15.405Z,38.25
2023-04-24T11:21:26.420Z,38.11
2023-04-24T11:22:32.409Z,38.21
2023-04-24T11:23:38.478Z,37.66
2023-04-24T11:24:50.159Z,37.91
2023-04-24T11:26:19.774Z,38.35
2023-04-24T11:27:23.516Z,38.07
2023-04-24T11:28:25.945Z,38.38
2023-04-24T11:29:40.241Z,38.36
2023-04-24T11:30:42.579Z,38.24
2023-04-24T11:31:51.057Z,38.28
2023-04-24T11:32:53.437Z,38.08
2023-04-24T11:33:56.354Z,38.17
2023-04-24T11:35:09.256Z,38.29
2023-04-24T11:36:11.643Z,38.28
2023-04-24T11:37:14.641Z,38.68
2023-04-24T11:38:24.619Z,38.62
2023-04-24T11:39:27.282Z,38.89
2023-04-24T11:40:29.584Z,39.25
2023-04-24T11:41:32.588Z,39.29
2023-04-24T11:42:37.974Z,39.52
2023-04-24T11:43:40.854Z,39.80
2023-04-24T11:44:44.094Z,39.83
2023-04-24T11:45:49.893Z,39.94
2023-04-24T11:46:52.262Z,39.94
2023-04-24T11:47:55.013Z,39.43
2023-04-24T11:48:58.150Z,38.90
2023-04-24T11:50:02.076Z,38.90
2023-04-24T11:51:04.882Z,39.10
2023-04-24T11:52:07.862Z,38.89
2023-04-24T11:53:10.173Z,39.13
2023-04-24T11:54:14.291Z,38.86
2023-04-24T11:55:16.552Z,39.04
2023-04-24T11:56:22.583Z,38.98
2023-04-24T11:57:30.037Z,39.07
2023-04-24T11:58:40.347Z,38.83
2023-04-24T11:59:42.796Z,38.62
2023-04-24T12:00:46.816Z,38.16
2023-04-24T12:01:50.376Z,38.51
2023-04-24T12:02:53.284Z,38.64
2023-04-24T12:04:01.271Z,38.80
2023-04-24T12:05:04.994Z,38.50
2023-04-24T12:06:09.415Z,38.22
2023-04-24T12:07:12.272Z,38.26
2023-04-24T12:08:31.286Z,37.94
2023-04-24T12:09:44.110Z,38.01
2023-04-24T12:10:52.425Z,37.71
2023-04-24T12:11:58.782Z,37.81
2023-04-24T12:13:01.640Z,38.02
2023-04-24T12:14:12.172Z,37.90
2023-04-24T12:15:16.891Z,37.77
2023-04-24T12:16:19.215Z,37.39
2023-04-24T12:17:33.359Z,37.60
2023-04-24T12:18:35.842Z,37.79
2023-04-24T12:19:38.124Z,37.24
2023-04-24T12:20:41.750Z,37.15
2023-04-24T12:21:45.143Z,37.46
2023-04-24T12:22:58.576Z,37.59
2023-04-24T12:24:00.838Z,37.62
2023-04-24T12:25:05.154Z,37.09
2023-04-24T12:26:07.503Z,37.17
2023-04-24T12:27:21.772Z,37.35
2023-04-24T12:28:24.015Z,37.41
2023-04-24T12:29:26.488Z,36.99
2023-04-24T12:30:30.420Z,36.94
2023-04-24T12:31:33.860Z,36.98
2023-04-24T12:32:36.232Z,37.13
2023-04-24T12:33:39.825Z,37.02
2023-04-24T12:34:44.777Z,36.87
2023-04-24T12:35:54.561Z,36.98
2023-04-24T12:36:56.942Z,36.92
2023-04-24T12:38:14.438Z,36.84
2023-04-24T12:39:18.625Z,36.07
2023-04-24T12:40:22.861Z,36.21
2023-04-24T12:41:25.115Z,36.15
2023-04-24T12:42:31.945Z,36.27
2023-04-24T12:43:34.709Z,36.17
2023-04-24T12:44:38.260Z,36.01
2023-04-24T12:45:41.223Z,35.87
2023-04-24T12:46:43.544Z,36.01
2023-04-24T12:47:46.914Z,36.04
2023-04-24T12:48:49.166Z,36.11
2023-04-24T12:49:53.490Z,36.48
2023-04-24T12:50:57.709Z,36.54
2023-04-24T12:51:59.982Z,36.84
2023-04-24T12:53:02.286Z,36.58
2023-04-24T12:54:04.622Z,36.82
2023-04-24T12:55:10.578Z,36.94
2023-04-24T12:56:12.869Z,36.71
2023-04-24T12:57:15.328Z,36.98
2023-04-24T12:58:17.543Z,36.94
2023-04-24T12:59:19.767Z,37.18
2023-04-24T13:00:22.280Z,37.31
2023-04-24T13:01:24.595Z,36.34
2023-04-24T13:02:30.363Z,36.04
2023-04-24T13:03:32.820Z,35.80
2023-04-24T13:04:35.079Z,35.30
2023-04-24T13:05:37.430Z,35.34
2023-04-24T13:06:39.722Z,35.17
2023-04-24T13:07:42.025Z,34.80
2023-04-24T13:08:44.350Z,34.53
2023-04-24T13:09:47.197Z,34.63
2023-04-24T13:10:49.658Z,34.33
2023-04-24T13:11:52.158Z,33.94
2023-04-24T13:12:54.514Z,33.88
2023-04-24T13:13:56.748Z,34.19
2023-04-24T13:14:59.854Z,34.30
2023-04-24T13:16:02.184Z,34.47
2023-04-24T13:17:05.120Z,34.00
2023-04-24T13:18:07.417Z,34.19
2023-04-24T13:19:09.701Z,34.03
2023-04-24T13:20:12.125Z,33.68
2023-04-24T13:21:14.438Z,33.89
2023-04-24T13:22:16.775Z,34.37
2023-04-24T13:23:19.209Z,34.29
2023-04-24T13:24:21.443Z,34.14
2023-04-24T13:25:24.763Z,34.24
2023-04-24T13:26:27.040Z,34.17
2023-04-24T13:27:29.348Z,34.07
2023-04-24T13:28:31.964Z,33.76
2023-04-24T13:29:34.250Z,33.71
2023-04-24T13:30:36.580Z,34.09
2023-04-24T13:31:38.909Z,33.97
2023-04-24T13:32:41.308Z,34.07
2023-04-24T13:33:43.985Z,33.91
2023-04-24T13:34:47.005Z,33.65
2023-04-24T13:35:49.263Z,33.32
2023-04-24T13:36:53.644Z,33.25
2023-04-24T13:37:56.220Z,32.55
2023-04-24T13:38:58.480Z,32.15
2023-04-24T13:40:00.742Z,32.37
2023-04-24T13:41:03.872Z,32.19
2023-04-24T13:42:06.200Z,32.03
2023-04-24T13:43:08.432Z,32.00
2023-04-24T13:44:10.690Z,31.71
2023-04-24T13:45:24.052Z,32.01
2023-04-24T13:46:27.309Z,32.21
2023-04-24T13:47:29.718Z,31.98
2023-04-24T13:48:32.582Z,32.14